KCFD/CFD METAR and TAF weather

Enter ICAO airport designator
Station Type Date Time Source
KCFD METAR 2019/12/15 16:55 UTC NOAA

KCFD 151655Z AUTO 19014G23KT 10SM OVC020 24/19 A2984 RMK AO2 T02410188


Station Type Date Time Source
KCFD Decoded METAR 2019/12/15 16:55 UTC NOAA

Station name not available
Dec 15, 2019 - 11:55 AM EST / 2019.12.15 1655 UTC
Wind: from the S (190 degrees) at 16 MPH (14 KT) gusting to 26 MPH (23 KT):0
Visibility: 10 mile(s):0
Sky conditions: overcast
Temperature: 75.4 F (24.1 C)
Dew Point: 65.8 F (18.8 C)
Relative Humidity: 72%
Pressure (altimeter): 29.84 in. Hg (1010 hPa)
ob: KCFD 151655Z AUTO 19014G23KT 10SM OVC020 24/19 A2984 RMK AO2 T02410188
cycle: 17

Station Type Date Time Source
KCFD TAF UTC NOAA

Error!

Example: see airport list